createdAt,value
2018-06-19T00:02:08.644Z,15.63
2018-06-19T00:04:37.029Z,14.55
2018-06-19T00:07:05.320Z,15.15
2018-06-19T00:09:33.531Z,13.43
2018-06-19T00:12:01.483Z,15.25
2018-06-19T00:14:29.624Z,14.25
2018-06-19T00:16:58.196Z,16.15
2018-06-19T00:19:27.197Z,15.05
2018-06-19T00:21:56.260Z,14.60
2018-06-19T00:24:24.669Z,15.38
2018-06-19T00:26:52.925Z,13.55
2018-06-19T00:29:21.428Z,12.93
2018-06-19T00:31:49.382Z,13.65
2018-06-19T00:34:17.318Z,15.80
2018-06-19T00:36:45.540Z,14.93
2018-06-19T00:39:13.925Z,13.25
2018-06-19T00:41:42.188Z,14.18
2018-06-19T00:44:11.292Z,17.23
2018-06-19T00:46:41.433Z,14.45
2018-06-19T00:49:09.418Z,17.92
2018-06-19T00:51:37.635Z,14.05
2018-06-19T00:54:06.146Z,14.60
2018-06-19T00:56:53.454Z,13.65
2018-06-19T00:59:22.049Z,13.13
2018-06-19T01:01:50.528Z,13.40
2018-06-19T01:04:18.497Z,13.10
2018-06-19T01:06:46.941Z,14.25
2018-06-19T01:09:15.172Z,15.90
2018-06-19T01:11:43.646Z,13.62
2018-06-19T01:14:12.122Z,15.30
2018-06-19T01:16:40.059Z,13.10
2018-06-19T01:19:08.272Z,13.83
2018-06-19T01:21:36.435Z,16.62
2018-06-19T01:24:05.021Z,14.78
2018-06-19T01:26:33.196Z,13.65
2018-06-19T01:29:01.352Z,15.98
2018-06-19T01:31:29.861Z,16.10
2018-06-19T01:33:58.060Z,14.65
2018-06-19T01:36:26.002Z,14.80
2018-06-19T01:38:54.211Z,12.85
2018-06-19T01:41:22.449Z,13.93
2018-06-19T01:43:51.033Z,14.60
2018-06-19T01:46:19.208Z,14.47
2018-06-19T01:48:47.419Z,17.27
2018-06-19T01:51:16.272Z,14.98
2018-06-19T01:53:44.236Z,15.08
2018-06-19T01:56:12.237Z,20.10
2018-06-19T01:58:40.489Z,12.70
2018-06-19T02:01:08.616Z,27.47
2018-06-19T02:03:36.528Z,14.20
2018-06-19T02:06:05.422Z,15.45
2018-06-19T02:08:33.386Z,15.90
2018-06-19T02:11:01.328Z,15.93
2018-06-19T02:13:29.537Z,12.65
2018-06-19T02:15:57.542Z,15.80
2018-06-19T02:18:25.751Z,13.72
2018-06-19T02:20:54.068Z,16.62
2018-06-19T02:23:22.345Z,15.48
2018-06-19T02:25:50.564Z,15.70
2018-06-19T02:28:18.891Z,14.58
2018-06-19T02:30:47.206Z,14.60
2018-06-19T02:33:15.127Z,18.20
2018-06-19T02:35:44.029Z,13.45
2018-06-19T02:38:11.986Z,16.45
2018-06-19T02:40:40.177Z,15.63
2018-06-19T02:43:08.345Z,14.33
2018-06-19T02:45:36.240Z,12.70
2018-06-19T02:48:04.208Z,14.53
2018-06-19T02:50:32.215Z,16.63
2018-06-19T02:53:00.468Z,19.60
2018-06-19T02:55:28.834Z,16.60
2018-06-19T02:57:57.060Z,15.48
2018-06-19T03:00:25.496Z,18.73
2018-06-19T03:02:53.729Z,14.20
2018-06-19T03:05:21.781Z,15.20
2018-06-19T03:07:50.197Z,14.83
2018-06-19T03:10:18.842Z,13.90
2018-06-19T03:12:47.050Z,20.80
2018-06-19T03:15:15.292Z,16.73
2018-06-19T03:17:43.468Z,16.25
2018-06-19T03:20:11.948Z,16.42
2018-06-19T03:22:40.163Z,17.03
2018-06-19T03:25:08.120Z,16.65
2018-06-19T03:27:36.434Z,18.92
2018-06-19T03:30:04.418Z,21.87
2018-06-19T03:32:33.273Z,15.40
2018-06-19T03:35:01.229Z,20.23
2018-06-19T03:37:29.414Z,16.07
2018-06-19T03:39:57.998Z,14.75
2018-06-19T03:42:25.895Z,16.57
2018-06-19T03:44:54.150Z,17.45
2018-06-19T03:47:22.469Z,16.87
2018-06-19T03:49:50.713Z,22.73
2018-06-19T03:52:18.968Z,15.72
2018-06-19T03:54:47.552Z,16.60
2018-06-19T03:57:16.033Z,15.93
2018-06-19T03:59:44.593Z,19.15
2018-06-19T04:02:12.759Z,15.90
2018-06-19T04:04:40.950Z,15.48
2018-06-19T04:07:09.202Z,16.50
2018-06-19T04:09:37.924Z,18.17
2018-06-19T04:12:06.728Z,15.95
2018-06-19T04:14:35.300Z,16.60
2018-06-19T04:17:03.559Z,17.25
2018-06-19T04:19:32.096Z,14.23
2018-06-19T04:22:00.472Z,20.48
2018-06-19T04:24:28.433Z,16.20
2018-06-19T04:26:56.425Z,15.35
2018-06-19T04:29:24.353Z,18.70
2018-06-19T04:31:52.328Z,16.27
2018-06-19T04:34:20.298Z,19.55
2018-06-19T04:36:48.771Z,19.05
2018-06-19T04:39:17.022Z,20.37
2018-06-19T04:41:44.993Z,17.80
2018-06-19T04:44:13.201Z,19.95
2018-06-19T04:46:41.108Z,17.67
2018-06-19T04:49:09.415Z,18.75
2018-06-19T04:51:37.393Z,16.02
2018-06-19T04:54:05.690Z,16.82
2018-06-19T04:56:33.655Z,19.07
2018-06-19T04:59:02.649Z,18.30
2018-06-19T05:01:30.904Z,16.77
2018-06-19T05:03:59.133Z,17.42
2018-06-19T05:06:27.378Z,18.73
2018-06-19T05:08:55.391Z,20.50
2018-06-19T05:11:24.038Z,24.05
2018-06-19T05:13:52.025Z,22.45
2018-06-19T05:16:20.285Z,20.25
2018-06-19T05:18:48.705Z,22.73
2018-06-19T05:21:17.100Z,20.90
2018-06-19T05:23:45.099Z,18.67
2018-06-19T05:26:13.035Z,22.37
2018-06-19T05:28:41.564Z,22.37
2018-06-19T05:31:09.494Z,21.70
2018-06-19T05:33:37.813Z,17.80
2018-06-19T05:36:06.089Z,21.05
2018-06-19T05:38:34.034Z,20.05
2018-06-19T05:41:02.006Z,18.45
2018-06-19T05:43:30.260Z,20.90
2018-06-19T05:45:58.197Z,20.70
2018-06-19T05:48:26.455Z,19.62
2018-06-19T05:50:54.717Z,22.07
2018-06-19T05:53:22.655Z,23.02
2018-06-19T05:55:50.902Z,18.50
2018-06-19T05:58:18.880Z,25.23
2018-06-19T06:00:46.770Z,22.77
2018-06-19T06:03:15.393Z,20.90
2018-06-19T06:05:44.046Z,18.82
2018-06-19T06:08:12.457Z,21.57
2018-06-19T06:10:40.452Z,20.65
2018-06-19T06:13:09.113Z,22.37
2018-06-19T06:15:37.306Z,18.20
2018-06-19T06:18:06.190Z,19.23
2018-06-19T06:20:34.460Z,19.57
2018-06-19T06:23:02.635Z,16.02
2018-06-19T06:25:31.212Z,16.67
2018-06-19T06:27:59.393Z,20.43
2018-06-19T06:30:27.373Z,18.20
2018-06-19T06:32:55.940Z,17.80
2018-06-19T06:35:24.223Z,20.30
2018-06-19T06:37:53.037Z,16.82
2018-06-19T06:40:21.010Z,19.17
2018-06-19T06:42:49.258Z,17.90
2018-06-19T06:45:17.783Z,16.05
2018-06-19T06:47:46.017Z,16.55
2018-06-19T06:50:14.283Z,17.75
2018-06-19T06:52:42.422Z,20.92
2018-06-19T06:55:10.692Z,19.00
2018-06-19T06:57:38.659Z,18.60
2018-06-19T07:00:06.989Z,17.73
2018-06-19T07:02:34.924Z,21.90
2018-06-19T07:05:03.243Z,17.42
2018-06-19T07:07:31.545Z,17.55
2018-06-19T07:10:00.402Z,15.32
2018-06-19T07:12:28.349Z,16.73
2018-06-19T07:14:56.644Z,20.80
2018-06-19T07:17:25.418Z,16.67
2018-06-19T07:19:53.388Z,17.75
2018-06-19T07:22:21.349Z,16.65
2018-06-19T07:24:49.517Z,18.48
2018-06-19T07:27:17.425Z,17.07
2018-06-19T07:29:45.728Z,22.82
2018-06-19T07:32:13.932Z,18.53
2018-06-19T07:34:42.453Z,14.53
2018-06-19T07:37:10.360Z,18.50
2018-06-19T07:39:38.596Z,16.07
2018-06-19T07:42:07.076Z,13.17
2018-06-19T07:44:35.351Z,16.40
2018-06-19T07:47:03.560Z,16.70
2018-06-19T07:49:31.831Z,23.22
2018-06-19T07:51:59.728Z,18.95
2018-06-19T07:54:27.751Z,18.77
2018-06-19T07:56:55.721Z,20.50
2018-06-19T07:59:24.250Z,17.27
2018-06-19T08:01:52.786Z,17.23
2018-06-19T08:04:20.719Z,18.50
2018-06-19T08:06:49.326Z,18.42
2018-06-19T08:09:17.571Z,15.65
2018-06-19T08:11:45.550Z,20.27
2018-06-19T08:14:14.069Z,18.12
2018-06-19T08:16:43.750Z,15.28
2018-06-19T08:19:12.461Z,17.27
2018-06-19T08:21:41.247Z,19.82
2018-06-19T08:24:09.270Z,14.28
2018-06-19T08:26:37.204Z,15.38
2018-06-19T08:29:05.673Z,17.55
2018-06-19T08:31:33.615Z,15.50
2018-06-19T08:34:01.850Z,13.20
2018-06-19T08:36:32.136Z,14.50
2018-06-19T08:39:02.465Z,14.77
2018-06-19T08:41:32.534Z,13.63
2018-06-19T08:44:02.822Z,15.75
2018-06-19T08:46:30.760Z,13.47
2018-06-19T08:48:59.084Z,13.93
2018-06-19T08:51:27.536Z,13.55
2018-06-19T08:53:55.485Z,14.83
2018-06-19T08:56:23.830Z,12.98
2018-06-19T08:58:52.208Z,15.85
2018-06-19T09:01:20.380Z,13.00
2018-06-19T09:03:48.701Z,10.73
2018-06-19T09:06:16.993Z,13.30
2018-06-19T09:08:45.776Z,14.53
2018-06-19T09:11:13.692Z,10.75
2018-06-19T09:13:42.230Z,12.20
2018-06-19T09:16:10.193Z,11.30
2018-06-19T09:18:38.236Z,13.50
2018-06-19T09:21:07.028Z,10.13
2018-06-19T09:23:35.017Z,10.88
2018-06-19T09:26:03.147Z,8.88
2018-06-19T09:28:31.675Z,9.08
2018-06-19T09:30:59.727Z,9.28
2018-06-19T09:33:28.026Z,14.80
2018-06-19T09:35:56.413Z,9.95
2018-06-19T09:38:24.492Z,10.18
2018-06-19T09:40:52.704Z,8.70
2018-06-19T09:43:20.748Z,8.05
2018-06-19T09:45:49.007Z,15.95
2018-06-19T09:48:17.290Z,16.50
2018-06-19T09:50:45.460Z,11.83
2018-06-19T09:53:14.349Z,9.98
2018-06-19T09:55:42.633Z,8.67
2018-06-19T09:58:10.554Z,9.98
2018-06-19T10:00:39.177Z,39.35
2018-06-19T10:03:07.326Z,12.10
2018-06-19T10:05:36.301Z,9.73
2018-06-19T10:08:04.246Z,11.48
2018-06-19T10:10:32.398Z,10.82
2018-06-19T10:13:00.390Z,7.55
2018-06-19T10:15:28.660Z,10.03
2018-06-19T10:17:57.001Z,17.00
2018-06-19T10:20:24.966Z,10.38
2018-06-19T10:22:53.628Z,9.65
2018-06-19T10:25:21.520Z,14.03
2018-06-19T10:27:49.722Z,12.05
2018-06-19T10:30:17.997Z,10.72
2018-06-19T10:32:46.151Z,11.65
2018-06-19T10:35:14.437Z,10.93
2018-06-19T10:37:42.729Z,9.38
2018-06-19T10:40:11.014Z,11.80
2018-06-19T10:42:39.276Z,10.43
2018-06-19T10:45:07.459Z,9.35
2018-06-19T10:47:35.580Z,8.10
2018-06-19T10:50:03.760Z,8.33
2018-06-19T10:52:32.390Z,9.95
2018-06-19T10:55:00.540Z,14.33
2018-06-19T10:57:28.742Z,10.00
2018-06-19T10:59:56.640Z,12.07
2018-06-19T11:02:25.394Z,9.23
2018-06-19T11:04:53.300Z,11.40
2018-06-19T11:07:25.581Z,8.98
2018-06-19T11:09:53.536Z,10.68
2018-06-19T11:12:22.187Z,8.30
2018-06-19T11:14:50.452Z,10.00
2018-06-19T11:17:18.405Z,8.33
2018-06-19T11:19:46.803Z,7.70
2018-06-19T11:22:14.769Z,9.23
2018-06-19T11:24:43.062Z,10.48
2018-06-19T11:27:11.725Z,10.03
2018-06-19T11:29:40.472Z,7.67
2018-06-19T11:32:08.490Z,12.25
2018-06-19T11:34:36.368Z,9.40
2018-06-19T11:37:04.849Z,6.33
2018-06-19T11:39:32.800Z,6.17
2018-06-19T11:42:00.708Z,7.55
2018-06-19T11:44:29.373Z,7.17
2018-06-19T11:46:57.338Z,7.05
2018-06-19T11:49:25.341Z,6.35
2018-06-19T11:51:53.488Z,6.55
2018-06-19T11:54:21.420Z,6.87
2018-06-19T11:56:49.783Z,5.60
2018-06-19T11:59:18.261Z,10.30
2018-06-19T12:01:46.640Z,8.33
2018-06-19T12:04:14.881Z,14.78
2018-06-19T12:06:43.081Z,8.18
2018-06-19T12:09:11.402Z,10.53
2018-06-19T12:11:40.088Z,11.30
2018-06-19T12:14:08.691Z,10.87
2018-06-19T12:16:36.888Z,9.95
2018-06-19T12:19:04.868Z,11.40
2018-06-19T12:21:33.373Z,13.32
2018-06-19T12:24:01.392Z,14.45
2018-06-19T12:26:29.631Z,12.30
2018-06-19T12:28:57.612Z,12.70
2018-06-19T12:31:25.540Z,11.45
2018-06-19T12:33:53.496Z,14.60
2018-06-19T12:36:21.985Z,12.10
2018-06-19T12:38:50.076Z,13.97
2018-06-19T12:41:18.480Z,20.30
2018-06-19T12:43:46.993Z,15.47
2018-06-19T12:46:15.889Z,12.37
2018-06-19T12:48:44.364Z,11.73
2018-06-19T12:51:44.796Z,9.50
2018-06-19T12:55:18.309Z,8.63
2018-06-19T12:57:46.485Z,8.70
2018-06-19T13:00:14.436Z,9.93
2018-06-19T13:02:46.812Z,8.03
2018-06-19T13:05:20.534Z,10.45
2018-06-19T13:07:48.740Z,12.70
2018-06-19T13:10:16.699Z,12.95
2018-06-19T13:13:21.399Z,13.40
2018-06-19T13:15:50.621Z,10.87
2018-06-19T13:18:24.225Z,10.40
2018-06-19T13:20:52.238Z,11.30
2018-06-19T13:23:20.653Z,9.13
2018-06-19T13:25:49.133Z,9.03
2018-06-19T13:28:17.617Z,6.87
2018-06-19T13:30:51.421Z,9.38
2018-06-19T13:33:20.001Z,8.73
2018-06-19T13:35:48.484Z,11.28
2018-06-19T13:38:16.660Z,8.35
2018-06-19T13:40:59.484Z,9.08
2018-06-19T13:43:33.589Z,10.25
2018-06-19T13:46:01.766Z,8.33
2018-06-19T13:48:29.941Z,8.80
2018-06-19T13:50:58.230Z,10.20
2018-06-19T13:53:26.218Z,9.37
2018-06-19T13:56:01.154Z,10.00
2018-06-19T13:58:29.876Z,9.15
2018-06-19T14:00:57.845Z,9.20
2018-06-19T14:03:25.777Z,12.07
2018-06-19T14:05:53.711Z,11.30
2018-06-19T14:08:58.707Z,11.73
2018-06-19T14:11:32.484Z,10.85
2018-06-19T14:14:01.049Z,14.15
2018-06-19T14:16:29.005Z,7.10
2018-06-19T14:18:57.195Z,6.67
2018-06-19T14:21:25.102Z,8.93
2018-06-19T14:23:53.082Z,9.08
2018-06-19T14:26:21.256Z,8.25
2018-06-19T14:28:49.797Z,7.95
2018-06-19T14:31:17.672Z,7.60
2018-06-19T14:33:46.347Z,10.55
2018-06-19T14:36:14.312Z,8.33
2018-06-19T14:38:43.001Z,8.55
2018-06-19T14:41:10.940Z,7.45
2018-06-19T14:43:39.655Z,10.50
2018-06-19T14:46:07.872Z,7.10
2018-06-19T14:48:35.869Z,10.43
2018-06-19T14:51:04.080Z,9.20
2018-06-19T14:53:32.904Z,9.93
2018-06-19T14:56:00.828Z,7.73
2018-06-19T14:58:29.049Z,8.90
2018-06-19T15:00:57.326Z,8.80
2018-06-19T15:03:25.766Z,7.28
2018-06-19T15:05:53.775Z,7.20
2018-06-19T15:08:21.702Z,8.63
2018-06-19T15:10:49.619Z,10.35
2018-06-19T15:13:17.809Z,9.60
2018-06-19T15:15:46.327Z,10.75
2018-06-19T15:18:14.313Z,12.73
2018-06-19T15:20:42.505Z,10.85
2018-06-19T15:23:10.489Z,9.80
2018-06-19T15:25:39.210Z,8.33
2018-06-19T15:28:07.444Z,7.90
2018-06-19T15:30:35.380Z,8.43
2018-06-19T15:33:04.260Z,8.95
2018-06-19T15:35:32.513Z,13.00
2018-06-19T15:38:00.521Z,8.13
2018-06-19T15:40:29.212Z,10.70
2018-06-19T15:42:57.716Z,8.35
2018-06-19T15:45:26.389Z,9.85
2018-06-19T15:47:54.461Z,10.25
2018-06-19T15:50:22.457Z,9.70
2018-06-19T15:52:50.573Z,10.23
2018-06-19T15:55:18.765Z,10.78
2018-06-19T15:57:46.693Z,8.08
2018-06-19T16:00:14.673Z,7.30
2018-06-19T16:02:42.613Z,9.90
2018-06-19T16:05:10.805Z,9.45
2018-06-19T16:07:43.097Z,9.93
2018-06-19T16:10:11.278Z,8.75
2018-06-19T16:12:39.545Z,7.12
2018-06-19T16:15:07.496Z,14.13
2018-06-19T16:17:35.459Z,8.28
2018-06-19T16:20:03.744Z,7.58
2018-06-19T16:22:32.230Z,13.65
2018-06-19T16:25:00.180Z,8.10
2018-06-19T16:27:28.064Z,7.95
2018-06-19T16:29:56.131Z,7.87
2018-06-19T16:32:24.545Z,5.08
2018-06-19T16:34:52.833Z,6.83
2018-06-19T16:37:20.831Z,11.68
2018-06-19T16:39:49.172Z,7.78
2018-06-19T16:42:17.454Z,9.40
2018-06-19T16:44:45.822Z,6.40
2018-06-19T16:47:13.877Z,6.53
2018-06-19T16:49:43.784Z,7.33
2018-06-19T16:52:16.126Z,3.37
2018-06-19T16:54:44.186Z,5.87
2018-06-19T16:57:12.183Z,5.60
2018-06-19T16:59:40.100Z,7.15
2018-06-19T17:02:08.062Z,8.13
2018-06-19T17:04:36.001Z,4.05
2018-06-19T17:07:04.251Z,4.57
2018-06-19T17:09:32.527Z,3.30
2018-06-19T17:12:00.803Z,4.07
2018-06-19T17:14:28.766Z,3.87
2018-06-19T17:16:57.308Z,4.95
2018-06-19T17:19:25.538Z,4.87
2018-06-19T17:21:54.390Z,5.40
2018-06-19T17:24:22.660Z,6.10
2018-06-19T17:26:50.641Z,4.70
2018-06-19T17:29:18.563Z,5.62
2018-06-19T17:31:46.860Z,3.73
2018-06-19T17:34:14.834Z,6.40
2018-06-19T17:36:42.775Z,3.42
2018-06-19T17:39:11.611Z,4.25
2018-06-19T17:41:40.089Z,4.77
2018-06-19T17:44:08.390Z,5.53
2018-06-19T17:46:36.514Z,4.92
2018-06-19T17:49:04.801Z,3.58
2018-06-19T17:51:32.769Z,7.95
2018-06-19T17:54:00.745Z,6.15
2018-06-19T17:56:28.974Z,3.98
2018-06-19T17:58:57.216Z,2.77
2018-06-19T18:01:25.150Z,6.03
2018-06-19T18:03:53.120Z,7.85
2018-06-19T18:06:21.402Z,4.22
2018-06-19T18:08:49.589Z,6.65
2018-06-19T18:11:17.501Z,5.05
2018-06-19T18:13:45.488Z,2.60
2018-06-19T18:16:13.356Z,4.15
2018-06-19T18:18:41.544Z,4.03
2018-06-19T18:21:10.023Z,3.25
2018-06-19T18:23:38.050Z,6.40
2018-06-19T18:26:06.047Z,2.37
2018-06-19T18:28:34.018Z,2.90
2018-06-19T18:31:02.076Z,3.77
2018-06-19T18:33:30.265Z,4.45
2018-06-19T18:35:58.417Z,5.33
2018-06-19T18:38:26.824Z,2.72
2018-06-19T18:40:54.976Z,5.30
2018-06-19T18:43:23.221Z,3.83
2018-06-19T18:45:51.681Z,4.00
2018-06-19T18:48:19.678Z,4.00
2018-06-19T18:50:47.992Z,4.45
2018-06-19T18:53:15.949Z,2.40
2018-06-19T18:55:44.200Z,5.08
2018-06-19T18:58:12.345Z,2.87
2018-06-19T19:00:40.289Z,2.70
2018-06-19T19:03:08.823Z,2.33
2018-06-19T19:05:36.787Z,3.58
2018-06-19T19:08:05.578Z,4.80
2018-06-19T19:10:38.933Z,3.50
2018-06-19T19:13:07.076Z,2.07
2018-06-19T19:15:40.685Z,3.20
2018-06-19T19:18:14.244Z,3.10
2018-06-19T19:20:42.489Z,6.90
2018-06-19T19:23:10.872Z,10.38
2018-06-19T19:25:38.771Z,5.83
2018-06-19T19:29:10.365Z,4.40
2018-06-19T19:31:38.300Z,4.20
2018-06-19T19:34:06.722Z,6.00
2018-06-19T19:36:40.125Z,2.77
2018-06-19T19:39:13.867Z,5.90
2018-06-19T19:41:42.428Z,6.72
2018-06-19T19:44:10.486Z,5.87
2018-06-19T19:46:43.768Z,3.90
2018-06-19T19:49:11.716Z,4.00
2018-06-19T19:51:39.740Z,2.83
2018-06-19T19:54:07.765Z,3.33
2018-06-19T19:56:41.329Z,5.00
2018-06-19T19:59:09.314Z,2.83
2018-06-19T20:01:37.604Z,4.72
2018-06-19T20:04:05.604Z,7.20
2018-06-19T20:06:33.533Z,5.53
2018-06-19T20:09:01.462Z,2.98
2018-06-19T20:11:30.753Z,5.85
2018-06-19T20:13:58.921Z,2.77
2018-06-19T20:16:26.833Z,4.55
2018-06-19T20:18:55.437Z,4.40
2018-06-19T20:21:23.422Z,3.00
2018-06-19T20:23:51.369Z,3.40
2018-06-19T20:26:19.702Z,2.70
2018-06-19T20:28:47.588Z,3.00
2018-06-19T20:31:15.881Z,2.90
2018-06-19T20:33:43.820Z,4.50
2018-06-19T20:36:12.040Z,7.90
2018-06-19T20:38:40.380Z,2.65
2018-06-19T20:41:08.361Z,3.00
2018-06-19T20:43:36.308Z,3.50
2018-06-19T20:46:04.256Z,3.15
2018-06-19T20:48:33.054Z,4.65
2018-06-19T20:51:01.070Z,2.98
2018-06-19T20:53:29.314Z,2.90
2018-06-19T20:55:57.285Z,5.67
2018-06-19T20:58:25.440Z,3.95
2018-06-19T21:00:53.421Z,3.95
2018-06-19T21:03:21.804Z,3.87
2018-06-19T21:05:49.805Z,5.65
2018-06-19T21:08:18.110Z,7.22
2018-06-19T21:10:46.550Z,5.00
2018-06-19T21:13:14.547Z,3.75
2018-06-19T21:15:42.769Z,3.20
2018-06-19T21:18:10.774Z,2.80
2018-06-19T21:20:38.984Z,2.95
2018-06-19T21:23:06.979Z,3.30
2018-06-19T21:25:34.945Z,3.75
2018-06-19T21:28:02.836Z,3.70
2018-06-19T21:30:31.326Z,3.37
2018-06-19T21:32:59.283Z,3.15
2018-06-19T21:35:27.304Z,3.20
2018-06-19T21:37:55.256Z,3.87
2018-06-19T21:40:23.760Z,2.80
2018-06-19T21:42:52.232Z,5.15
2018-06-19T21:45:20.132Z,3.83
2018-06-19T21:47:48.683Z,6.70
2018-06-19T21:50:16.942Z,4.70
2018-06-19T21:52:44.982Z,4.60
2018-06-19T21:55:12.897Z,3.85
2018-06-19T21:57:40.985Z,6.50
2018-06-19T22:00:08.929Z,3.33
2018-06-19T22:02:37.016Z,3.40
2018-06-19T22:05:05.402Z,4.35
2018-06-19T22:07:33.693Z,5.05
2018-06-19T22:10:01.740Z,4.00
2018-06-19T22:12:29.976Z,3.77
2018-06-19T22:14:58.162Z,3.12
2018-06-19T22:17:26.584Z,2.35
2018-06-19T22:19:55.504Z,2.85
2018-06-19T22:22:23.984Z,7.28
2018-06-19T22:24:51.893Z,6.47
2018-06-19T22:27:20.133Z,8.30
2018-06-19T22:29:48.487Z,2.70
2018-06-19T22:32:16.444Z,6.55
2018-06-19T22:34:44.347Z,2.95
2018-06-19T22:37:12.941Z,2.90
2018-06-19T22:39:41.818Z,3.20
2018-06-19T22:42:09.813Z,4.80
2018-06-19T22:44:38.049Z,4.22
2018-06-19T22:47:06.494Z,4.05
2018-06-19T22:49:34.415Z,4.67
2018-06-19T22:52:02.436Z,7.50
2018-06-19T22:54:30.371Z,4.10
2018-06-19T22:56:58.317Z,2.95
2018-06-19T22:59:26.321Z,3.95
2018-06-19T23:01:54.397Z,3.67
2018-06-19T23:04:22.405Z,4.33
2018-06-19T23:06:50.382Z,3.10
2018-06-19T23:09:18.947Z,4.35
2018-06-19T23:11:46.953Z,4.05
2018-06-19T23:14:15.525Z,7.00
2018-06-19T23:16:43.492Z,4.70
2018-06-19T23:19:11.657Z,5.00
2018-06-19T23:21:39.666Z,4.17
2018-06-19T23:24:08.007Z,4.37
2018-06-19T23:26:36.280Z,5.35
2018-06-19T23:29:04.750Z,5.40
2018-06-19T23:31:33.325Z,3.50
2018-06-19T23:34:01.626Z,4.22
2018-06-19T23:36:29.835Z,3.08
2018-06-19T23:38:57.806Z,4.80
2018-06-19T23:41:25.780Z,5.10
2018-06-19T23:43:54.012Z,6.47
2018-06-19T23:46:21.992Z,3.72
2018-06-19T23:48:50.152Z,4.72
2018-06-19T23:51:18.133Z,3.70
2018-06-19T23:53:46.086Z,4.87
2018-06-19T23:56:14.053Z,4.03
2018-06-19T23:58:41.969Z,5.28
